createdAt,value
2022-10-26T00:02:32.819Z,4.73
2022-10-26T00:06:34.415Z,4.53
2022-10-26T00:10:38.788Z,5.30
2022-10-26T00:14:40.197Z,5.50
2022-10-26T00:18:42.545Z,5.20
2022-10-26T00:22:44.112Z,5.43
2022-10-26T00:26:47.225Z,6.17
2022-10-26T00:30:48.760Z,6.57
2022-10-26T00:34:50.321Z,7.57
2022-10-26T00:38:53.288Z,6.53
2022-10-26T00:42:56.561Z,6.40
2022-10-26T00:46:58.077Z,5.03
2022-10-26T00:51:02.356Z,5.80
2022-10-26T00:55:05.602Z,7.57
2022-10-26T00:59:11.733Z,8.13
2022-10-26T01:03:13.265Z,6.40
2022-10-26T01:07:14.982Z,6.00
2022-10-26T01:11:16.721Z,5.20
2022-10-26T01:15:23.720Z,4.57
2022-10-26T01:20:00.506Z,3.93
2022-10-26T01:24:34.186Z,3.87
2022-10-26T01:28:53.341Z,4.30
2022-10-26T01:33:16.700Z,5.70
2022-10-26T01:37:24.721Z,5.97
2022-10-26T01:41:30.266Z,4.70
2022-10-26T01:45:33.738Z,4.53
2022-10-26T01:49:40.387Z,4.50
2022-10-26T01:53:45.585Z,3.57
2022-10-26T01:57:47.298Z,3.27
2022-10-26T02:02:22.632Z,3.20
2022-10-26T02:06:36.729Z,2.93
2022-10-26T02:10:48.225Z,2.90
2022-10-26T02:14:55.737Z,2.50
2022-10-26T02:19:02.729Z,2.53
2022-10-26T02:23:08.009Z,2.70
2022-10-26T02:27:16.076Z,2.90
2022-10-26T02:31:19.478Z,2.90
2022-10-26T02:35:25.730Z,3.60
2022-10-26T02:39:31.210Z,3.40
2022-10-26T02:43:38.274Z,2.90
2022-10-26T02:47:39.941Z,3.40
2022-10-26T02:55:55.006Z,3.77
2022-10-26T02:59:57.719Z,3.00
2022-10-26T03:04:00.310Z,2.70
2022-10-26T03:08:01.880Z,3.00
2022-10-26T03:12:05.497Z,2.60
2022-10-26T03:16:07.392Z,3.20
2022-10-26T03:20:09.728Z,3.00
2022-10-26T03:24:11.288Z,2.60
2022-10-26T03:28:14.172Z,4.17
2022-10-26T03:32:15.740Z,3.00
2022-10-26T03:36:17.313Z,2.97
2022-10-26T03:40:18.736Z,2.70
2022-10-26T03:44:21.708Z,2.27
2022-10-26T03:48:23.276Z,2.20
2022-10-26T03:52:25.108Z,2.00
2022-10-26T03:56:26.585Z,4.67
2022-10-26T04:00:29.513Z,4.57
2022-10-26T04:04:31.059Z,6.30
2022-10-26T04:08:32.579Z,6.27
2022-10-26T04:12:36.875Z,9.87
2022-10-26T04:16:39.772Z,11.77
2022-10-26T04:20:41.521Z,10.50
2022-10-26T04:24:43.096Z,12.93
2022-10-26T04:28:44.656Z,11.73
2022-10-26T04:32:47.875Z,9.03
2022-10-26T04:36:49.440Z,6.60
2022-10-26T04:40:51.029Z,6.00
2022-10-26T04:44:52.577Z,9.70
2022-10-26T04:48:55.457Z,11.03
2022-10-26T04:52:57.601Z,11.90
2022-10-26T04:56:59.184Z,9.70
2022-10-26T05:01:01.274Z,8.20
2022-10-26T05:05:04.668Z,4.83
2022-10-26T05:09:06.154Z,3.00
2022-10-26T05:13:09.147Z,7.20
2022-10-26T05:17:10.582Z,10.00
2022-10-26T05:21:13.437Z,8.37
2022-10-26T05:25:16.194Z,12.33
2022-10-26T05:29:17.601Z,13.77
2022-10-26T05:33:18.976Z,12.93
2022-10-26T05:37:21.721Z,13.17
2022-10-26T05:41:23.238Z,13.90
2022-10-26T05:45:24.655Z,13.17
2022-10-26T05:49:26.229Z,8.27
2022-10-26T05:53:29.039Z,12.17
2022-10-26T05:57:31.148Z,10.97
2022-10-26T06:01:43.854Z,9.90
2022-10-26T06:05:52.269Z,6.80
2022-10-26T06:09:55.628Z,6.00
2022-10-26T06:13:57.690Z,5.90
2022-10-26T06:18:06.041Z,5.20
2022-10-26T06:22:23.554Z,4.03
2022-10-26T06:26:40.228Z,3.60
2022-10-26T06:30:41.808Z,3.37
2022-10-26T06:34:47.879Z,3.97
2022-10-26T06:38:53.454Z,7.10
2022-10-26T06:42:56.748Z,11.50
2022-10-26T06:47:06.013Z,5.40
2022-10-26T06:51:12.327Z,4.00
2022-10-26T06:55:15.561Z,3.40
2022-10-26T06:59:30.350Z,3.93
2022-10-26T07:03:31.911Z,3.40
2022-10-26T07:07:37.083Z,2.90
2022-10-26T07:11:38.452Z,2.90
2022-10-26T07:15:41.229Z,5.10
2022-10-26T07:19:42.651Z,3.30
2022-10-26T07:23:44.255Z,3.77
2022-10-26T07:27:45.636Z,5.43
2022-10-26T07:31:48.721Z,10.27
2022-10-26T07:35:50.328Z,10.43
2022-10-26T07:39:51.874Z,6.67
2022-10-26T07:43:53.414Z,7.17
2022-10-26T07:47:56.649Z,4.80
2022-10-26T07:51:58.044Z,4.00
2022-10-26T07:55:59.651Z,8.77
2022-10-26T08:00:01.048Z,8.93
2022-10-26T08:04:03.937Z,7.27
2022-10-26T08:08:05.403Z,8.67
2022-10-26T08:12:07.206Z,9.50
2022-10-26T08:16:09.012Z,7.50
2022-10-26T08:20:12.196Z,10.10
2022-10-26T08:24:13.690Z,10.23
2022-10-26T08:28:15.263Z,8.30
2022-10-26T08:32:16.832Z,6.63
2022-10-26T08:36:23.823Z,2.53
2022-10-26T08:40:28.302Z,4.50
2022-10-26T08:44:36.134Z,8.13
2022-10-26T08:48:42.871Z,4.70
2022-10-26T08:52:49.982Z,4.10
2022-10-26T08:56:55.465Z,6.17
2022-10-26T09:00:58.332Z,2.17
2022-10-26T09:05:00.408Z,4.80
2022-10-26T09:09:10.112Z,7.10
2022-10-26T09:13:22.039Z,9.10
2022-10-26T09:17:33.894Z,7.40
2022-10-26T09:21:43.198Z,3.43
2022-10-26T09:25:57.676Z,3.97
2022-10-26T09:30:03.786Z,2.70
2022-10-26T09:34:07.714Z,2.30
2022-10-26T09:38:17.649Z,2.37
2022-10-26T09:42:26.240Z,1.80
2022-10-26T09:46:32.597Z,1.80
2022-10-26T09:50:36.904Z,2.07
2022-10-26T09:54:38.501Z,1.77
2022-10-26T09:58:43.689Z,1.93
2022-10-26T10:02:51.932Z,1.70
2022-10-26T10:07:12.712Z,1.90
2022-10-26T10:11:15.160Z,1.77
2022-10-26T10:15:21.390Z,1.80
2022-10-26T10:19:25.708Z,1.90
2022-10-26T10:23:30.739Z,1.67
2022-10-26T10:27:32.311Z,1.60
2022-10-26T10:31:35.116Z,2.10
2022-10-26T10:35:39.539Z,1.60
2022-10-26T10:39:42.282Z,1.67
2022-10-26T10:43:46.979Z,1.83
2022-10-26T10:48:02.112Z,1.87
2022-10-26T10:52:04.387Z,1.50
2022-10-26T10:56:27.251Z,1.70
2022-10-26T11:00:31.010Z,1.45
2022-10-26T11:04:57.094Z,1.40
2022-10-26T11:09:02.323Z,2.20
2022-10-26T11:13:15.302Z,1.30
2022-10-26T11:17:21.092Z,1.55
2022-10-26T11:21:28.254Z,1.10
2022-10-26T11:25:35.347Z,1.25
2022-10-26T11:29:44.639Z,1.40
2022-10-26T11:33:59.446Z,1.20
2022-10-26T11:38:09.599Z,1.45
2022-10-26T11:42:22.382Z,1.20
2022-10-26T11:46:28.279Z,1.30
2022-10-26T11:50:34.035Z,1.20
2022-10-26T11:54:41.425Z,1.05
2022-10-26T11:58:45.607Z,1.38
2022-10-26T12:02:50.509Z,1.17
2022-10-26T12:06:54.711Z,1.00
2022-10-26T12:11:05.220Z,1.00
2022-10-26T12:15:30.811Z,1.17
2022-10-26T12:19:50.281Z,1.10
2022-10-26T12:23:57.077Z,1.00
2022-10-26T12:27:59.787Z,0.87
2022-10-26T12:32:01.322Z,0.93
2022-10-26T12:36:02.852Z,0.90
2022-10-26T12:40:39.772Z,1.00
2022-10-26T12:45:02.241Z,0.90
2022-10-26T12:49:04.070Z,1.00
2022-10-26T12:53:07.976Z,0.90
2022-10-26T12:57:23.485Z,1.10
2022-10-26T13:02:03.548Z,0.73
2022-10-26T13:06:22.809Z,1.10
2022-10-26T13:10:26.253Z,1.20
2022-10-26T13:14:33.863Z,0.90
2022-10-26T13:18:42.307Z,0.80
2022-10-26T13:22:47.315Z,1.00
2022-10-26T13:27:24.684Z,1.00
2022-10-26T13:31:55.065Z,1.47
2022-10-26T13:35:59.425Z,1.00
2022-10-26T13:40:04.696Z,0.83
2022-10-26T13:44:14.057Z,1.10
2022-10-26T13:48:22.568Z,0.90
2022-10-26T13:52:32.909Z,1.07
2022-10-26T13:56:42.730Z,0.90
2022-10-26T14:01:12.263Z,0.83
2022-10-26T14:05:16.988Z,1.00
2022-10-26T14:09:22.057Z,1.07
2022-10-26T14:13:25.566Z,0.90
2022-10-26T14:17:27.003Z,0.90
2022-10-26T14:21:28.628Z,1.10
2022-10-26T14:25:42.651Z,1.20
2022-10-26T14:30:17.124Z,1.00
2022-10-26T14:34:17.593Z,0.90
2022-10-26T14:38:22.240Z,0.90
2022-10-26T14:42:28.772Z,0.90
2022-10-26T14:46:34.419Z,1.00
2022-10-26T14:50:36.100Z,0.90
2022-10-26T14:54:37.555Z,1.20
2022-10-26T14:58:40.563Z,1.10
2022-10-26T15:02:44.230Z,1.57
2022-10-26T15:06:46.506Z,1.07
2022-10-26T15:10:48.608Z,0.90
2022-10-26T15:14:52.399Z,1.30
2022-10-26T15:18:57.588Z,1.10
2022-10-26T15:23:01.680Z,1.00
2022-10-26T15:27:04.752Z,1.00
2022-10-26T15:31:31.694Z,1.20
2022-10-26T15:35:33.291Z,1.30
2022-10-26T15:39:34.696Z,1.33
2022-10-26T15:43:37.436Z,1.03
2022-10-26T15:47:40.292Z,0.90
2022-10-26T15:51:46.576Z,1.07
2022-10-26T15:55:48.540Z,0.90
2022-10-26T15:59:49.966Z,1.10
2022-10-26T16:03:53.315Z,1.30
2022-10-26T16:07:55.015Z,1.13
2022-10-26T16:11:57.792Z,1.03
2022-10-26T16:15:59.475Z,1.00
2022-10-26T16:20:05.375Z,0.97
2022-10-26T16:24:10.363Z,0.90
2022-10-26T16:28:14.200Z,0.77
2022-10-26T16:32:15.739Z,1.10
2022-10-26T16:36:18.480Z,1.00
2022-10-26T16:40:20.011Z,1.00
2022-10-26T16:44:21.432Z,1.30
2022-10-26T16:48:22.905Z,0.93
2022-10-26T16:52:27.609Z,0.97
2022-10-26T16:56:29.723Z,0.90
2022-10-26T17:00:31.467Z,0.97
2022-10-26T17:04:32.891Z,1.13
2022-10-26T17:08:36.361Z,1.00
2022-10-26T17:12:38.026Z,1.40
2022-10-26T17:16:39.612Z,1.67
2022-10-26T17:20:49.181Z,1.13
2022-10-26T17:24:51.993Z,1.27
2022-10-26T17:28:54.966Z,1.20
2022-10-26T17:32:56.666Z,1.20
2022-10-26T17:36:58.084Z,1.20
2022-10-26T17:41:02.061Z,1.17
2022-10-26T17:45:04.281Z,1.50
2022-10-26T17:49:05.913Z,1.10
2022-10-26T17:53:07.467Z,1.03
2022-10-26T17:57:10.267Z,1.00
2022-10-26T18:01:13.255Z,1.40
2022-10-26T18:05:14.749Z,1.30
2022-10-26T18:09:16.173Z,1.00
2022-10-26T18:13:19.221Z,0.97
2022-10-26T18:17:20.633Z,1.30
2022-10-26T18:21:22.133Z,1.20
2022-10-26T18:25:23.901Z,1.20
2022-10-26T18:29:26.822Z,1.00
2022-10-26T18:33:32.929Z,1.30
2022-10-26T18:37:36.125Z,1.30
2022-10-26T18:41:37.565Z,1.10
2022-10-26T18:45:40.346Z,1.10
2022-10-26T18:49:41.750Z,1.17
2022-10-26T18:53:44.521Z,1.10
2022-10-26T18:57:45.905Z,1.10
2022-10-26T19:01:49.570Z,1.50
2022-10-26T19:05:51.085Z,1.30
2022-10-26T19:09:52.639Z,1.30
2022-10-26T19:13:54.642Z,0.90
2022-10-26T19:17:57.873Z,1.30
2022-10-26T19:21:59.289Z,1.37
2022-10-26T19:26:00.933Z,1.37
2022-10-26T19:30:02.336Z,1.50
2022-10-26T19:34:05.280Z,1.40
2022-10-26T19:38:06.837Z,1.50
2022-10-26T19:42:08.253Z,1.80
2022-10-26T19:46:12.113Z,1.60
2022-10-26T19:50:15.112Z,1.70
2022-10-26T19:54:16.672Z,1.60
2022-10-26T19:58:18.113Z,1.43
2022-10-26T20:02:19.688Z,1.40
2022-10-26T20:06:22.669Z,1.50
2022-10-26T20:10:25.829Z,1.50
2022-10-26T20:14:27.289Z,1.67
2022-10-26T20:18:28.829Z,1.80
2022-10-26T20:22:31.661Z,1.97
2022-10-26T20:26:33.061Z,1.90
2022-10-26T20:30:36.549Z,1.60
2022-10-26T20:34:41.333Z,1.80
2022-10-26T20:38:47.464Z,1.87
2022-10-26T20:46:56.531Z,1.90
2022-10-26T20:51:04.965Z,1.70
2022-10-26T20:55:17.733Z,1.90
2022-10-26T20:59:26.030Z,1.97
2022-10-26T21:03:27.897Z,2.40
2022-10-26T21:07:29.465Z,1.50
2022-10-26T21:11:32.533Z,1.70
2022-10-26T21:15:34.761Z,2.00
2022-10-26T21:19:36.364Z,1.77
2022-10-26T21:23:39.466Z,1.73
2022-10-26T21:27:42.252Z,1.50
2022-10-26T21:31:43.873Z,1.60
2022-10-26T21:35:52.735Z,2.00
2022-10-26T21:39:54.246Z,1.90
2022-10-26T21:44:08.364Z,1.77
2022-10-26T21:48:11.344Z,1.87
2022-10-26T21:52:12.796Z,1.60
2022-10-26T21:56:16.761Z,1.77
2022-10-26T22:00:19.494Z,1.70
2022-10-26T22:04:21.033Z,1.77
2022-10-26T22:08:22.424Z,1.80
2022-10-26T22:12:24.100Z,1.70
2022-10-26T22:16:28.430Z,1.90
2022-10-26T22:20:29.881Z,2.20
2022-10-26T22:24:31.306Z,1.73
2022-10-26T22:28:34.663Z,1.80
2022-10-26T22:32:39.409Z,1.50
2022-10-26T22:36:40.996Z,1.93
2022-10-26T22:40:42.576Z,1.80
2022-10-26T22:44:43.992Z,1.93
2022-10-26T22:48:47.534Z,1.80
2022-10-26T22:52:49.236Z,1.87
2022-10-26T22:56:50.992Z,2.03
2022-10-26T23:00:52.590Z,2.10
2022-10-26T23:04:55.658Z,1.97
2022-10-26T23:08:57.668Z,2.00
2022-10-26T23:12:59.301Z,1.87
2022-10-26T23:17:01.013Z,1.80
2022-10-26T23:21:04.977Z,1.77
2022-10-26T23:25:07.004Z,1.60
2022-10-26T23:29:11.184Z,1.67
2022-10-26T23:33:12.688Z,1.93
2022-10-26T23:37:15.673Z,2.00
2022-10-26T23:41:17.269Z,1.70
2022-10-26T23:45:18.920Z,1.90
2022-10-26T23:49:20.360Z,1.70
2022-10-26T23:53:26.817Z,1.70
2022-10-26T23:57:28.536Z,2.20
